sensor_id;sensor_type;location;lat;lon;timestamp;P1;durP1;ratioP1;P2;durP2;ratioP2
16314;SDS011;8266;52.150;4.768;2023-05-24T00:00:59;4.43;;;2.17;;
16314;SDS011;8266;52.150;4.768;2023-05-24T00:03:26;7.93;;;2.58;;
16314;SDS011;8266;52.150;4.768;2023-05-24T00:05:54;6.03;;;2.20;;
16314;SDS011;8266;52.150;4.768;2023-05-24T00:08:22;12.32;;;2.55;;
16314;SDS011;8266;52.150;4.768;2023-05-24T00:10:48;6.20;;;2.10;;
16314;SDS011;8266;52.150;4.768;2023-05-24T00:13:15;7.13;;;2.28;;
16314;SDS011;8266;52.150;4.768;2023-05-24T00:15:44;6.22;;;2.45;;
16314;SDS011;8266;52.150;4.768;2023-05-24T00:18:11;5.22;;;2.03;;
16314;SDS011;8266;52.150;4.768;2023-05-24T00:20:38;7.00;;;3.00;;
16314;SDS011;8266;52.150;4.768;2023-05-24T00:23:05;8.65;;;2.67;;
16314;SDS011;8266;52.150;4.768;2023-05-24T00:25:32;6.22;;;2.60;;
16314;SDS011;8266;52.150;4.768;2023-05-24T00:27:58;6.82;;;2.00;;
16314;SDS011;8266;52.150;4.768;2023-05-24T00:30:25;6.78;;;2.47;;
16314;SDS011;8266;52.150;4.768;2023-05-24T00:32:54;6.78;;;2.42;;
16314;SDS011;8266;52.150;4.768;2023-05-24T00:35:21;9.57;;;2.45;;
16314;SDS011;8266;52.150;4.768;2023-05-24T00:37:48;5.78;;;2.35;;
16314;SDS011;8266;52.150;4.768;2023-05-24T00:40:15;9.07;;;2.30;;
16314;SDS011;8266;52.150;4.768;2023-05-24T00:42:41;9.52;;;2.60;;
16314;SDS011;8266;52.150;4.768;2023-05-24T00:45:09;8.38;;;2.08;;
16314;SDS011;8266;52.150;4.768;2023-05-24T00:47:36;9.02;;;2.42;;
16314;SDS011;8266;52.150;4.768;2023-05-24T00:50:05;5.32;;;2.00;;
16314;SDS011;8266;52.150;4.768;2023-05-24T00:52:33;7.32;;;2.97;;
16314;SDS011;8266;52.150;4.768;2023-05-24T00:55:01;3.75;;;1.98;;
16314;SDS011;8266;52.150;4.768;2023-05-24T00:57:28;8.10;;;2.45;;
16314;SDS011;8266;52.150;4.768;2023-05-24T00:59:55;8.40;;;1.95;;
16314;SDS011;8266;52.150;4.768;2023-05-24T01:02:22;8.05;;;2.22;;
16314;SDS011;8266;52.150;4.768;2023-05-24T01:04:49;6.90;;;2.15;;
16314;SDS011;8266;52.150;4.768;2023-05-24T01:07:20;5.50;;;2.42;;
16314;SDS011;8266;52.150;4.768;2023-05-24T01:09:58;7.18;;;2.22;;
16314;SDS011;8266;52.150;4.768;2023-05-24T01:12:32;8.10;;;2.38;;
16314;SDS011;8266;52.150;4.768;2023-05-24T01:15:07;9.45;;;2.60;;
16314;SDS011;8266;52.150;4.768;2023-05-24T01:17:44;7.82;;;2.22;;
16314;SDS011;8266;52.150;4.768;2023-05-24T01:20:16;4.30;;;2.03;;
16314;SDS011;8266;52.150;4.768;2023-05-24T01:23:00;8.10;;;2.80;;
16314;SDS011;8266;52.150;4.768;2023-05-24T01:25:42;6.65;;;2.72;;
16314;SDS011;8266;52.150;4.768;2023-05-24T01:28:16;4.65;;;2.35;;
16314;SDS011;8266;52.150;4.768;2023-05-24T01:30:44;6.07;;;2.25;;
16314;SDS011;8266;52.150;4.768;2023-05-24T01:33:11;8.32;;;2.50;;
16314;SDS011;8266;52.150;4.768;2023-05-24T01:35:38;5.53;;;2.95;;
16314;SDS011;8266;52.150;4.768;2023-05-24T01:38:06;8.05;;;2.53;;
16314;SDS011;8266;52.150;4.768;2023-05-24T01:40:34;6.38;;;2.67;;
16314;SDS011;8266;52.150;4.768;2023-05-24T01:43:06;11.10;;;2.97;;
16314;SDS011;8266;52.150;4.768;2023-05-24T01:45:43;4.40;;;1.90;;
16314;SDS011;8266;52.150;4.768;2023-05-24T01:48:18;4.45;;;2.28;;
16314;SDS011;8266;52.150;4.768;2023-05-24T01:50:57;7.82;;;2.75;;
16314;SDS011;8266;52.150;4.768;2023-05-24T01:53:25;6.97;;;2.22;;
16314;SDS011;8266;52.150;4.768;2023-05-24T01:55:58;5.35;;;2.40;;
16314;SDS011;8266;52.150;4.768;2023-05-24T01:58:27;4.47;;;2.03;;
16314;SDS011;8266;52.150;4.768;2023-05-24T02:00:57;7.20;;;2.65;;
16314;SDS011;8266;52.150;4.768;2023-05-24T02:03:25;7.82;;;2.97;;
16314;SDS011;8266;52.150;4.768;2023-05-24T02:05:52;5.40;;;2.47;;
16314;SDS011;8266;52.150;4.768;2023-05-24T02:08:19;7.68;;;2.40;;
16314;SDS011;8266;52.150;4.768;2023-05-24T02:10:47;11.85;;;2.50;;
16314;SDS011;8266;52.150;4.768;2023-05-24T02:13:13;5.78;;;2.47;;
16314;SDS011;8266;52.150;4.768;2023-05-24T02:15:42;8.90;;;2.88;;
16314;SDS011;8266;52.150;4.768;2023-05-24T02:18:10;6.60;;;2.78;;
16314;SDS011;8266;52.150;4.768;2023-05-24T02:20:38;5.28;;;2.53;;
16314;SDS011;8266;52.150;4.768;2023-05-24T02:23:05;7.82;;;2.85;;
16314;SDS011;8266;52.150;4.768;2023-05-24T02:25:32;8.10;;;3.05;;
16314;SDS011;8266;52.150;4.768;2023-05-24T02:27:59;10.68;;;3.30;;
16314;SDS011;8266;52.150;4.768;2023-05-24T02:30:26;5.53;;;2.47;;
16314;SDS011;8266;52.150;4.768;2023-05-24T02:32:53;5.90;;;2.60;;
16314;SDS011;8266;52.150;4.768;2023-05-24T02:35:21;8.80;;;3.35;;
16314;SDS011;8266;52.150;4.768;2023-05-24T02:37:48;6.20;;;2.90;;
16314;SDS011;8266;52.150;4.768;2023-05-24T02:40:15;7.32;;;2.65;;
16314;SDS011;8266;52.150;4.768;2023-05-24T02:42:42;5.55;;;2.47;;
16314;SDS011;8266;52.150;4.768;2023-05-24T02:45:09;9.32;;;2.72;;
16314;SDS011;8266;52.150;4.768;2023-05-24T02:47:36;7.32;;;3.00;;
16314;SDS011;8266;52.150;4.768;2023-05-24T02:50:04;7.00;;;2.95;;
16314;SDS011;8266;52.150;4.768;2023-05-24T02:52:33;7.10;;;2.67;;
16314;SDS011;8266;52.150;4.768;2023-05-24T02:55:00;7.00;;;3.03;;
16314;SDS011;8266;52.150;4.768;2023-05-24T02:57:27;6.22;;;2.63;;
16314;SDS011;8266;52.150;4.768;2023-05-24T02:59:54;9.23;;;2.85;;
16314;SDS011;8266;52.150;4.768;2023-05-24T03:02:21;6.28;;;2.75;;
16314;SDS011;8266;52.150;4.768;2023-05-24T03:04:49;10.00;;;3.10;;
16314;SDS011;8266;52.150;4.768;2023-05-24T03:07:15;8.10;;;3.03;;
16314;SDS011;8266;52.150;4.768;2023-05-24T03:09:44;9.23;;;2.55;;
16314;SDS011;8266;52.150;4.768;2023-05-24T03:12:11;6.18;;;2.85;;
16314;SDS011;8266;52.150;4.768;2023-05-24T03:14:38;7.78;;;2.78;;
16314;SDS011;8266;52.150;4.768;2023-05-24T03:17:05;8.65;;;2.80;;
16314;SDS011;8266;52.150;4.768;2023-05-24T03:19:32;13.25;;;3.40;;
16314;SDS011;8266;52.150;4.768;2023-05-24T03:21:59;8.38;;;3.08;;
16314;SDS011;8266;52.150;4.768;2023-05-24T03:24:26;8.13;;;3.65;;
16314;SDS011;8266;52.150;4.768;2023-05-24T03:26:54;7.00;;;2.72;;
16314;SDS011;8266;52.150;4.768;2023-05-24T03:29:21;6.53;;;2.47;;
16314;SDS011;8266;52.150;4.768;2023-05-24T03:31:48;8.05;;;3.05;;
16314;SDS011;8266;52.150;4.768;2023-05-24T03:34:15;8.80;;;2.72;;
16314;SDS011;8266;52.150;4.768;2023-05-24T03:36:42;6.32;;;2.55;;
16314;SDS011;8266;52.150;4.768;2023-05-24T03:39:09;8.18;;;3.05;;
16314;SDS011;8266;52.150;4.768;2023-05-24T03:41:35;9.45;;;3.10;;
16314;SDS011;8266;52.150;4.768;2023-05-24T03:44:04;8.48;;;2.97;;
16314;SDS011;8266;52.150;4.768;2023-05-24T03:46:31;11.52;;;3.15;;
16314;SDS011;8266;52.150;4.768;2023-05-24T03:48:58;5.53;;;2.60;;
16314;SDS011;8266;52.150;4.768;2023-05-24T03:51:25;7.03;;;2.42;;
16314;SDS011;8266;52.150;4.768;2023-05-24T03:53:53;5.50;;;2.38;;
16314;SDS011;8266;52.150;4.768;2023-05-24T03:56:21;9.15;;;3.20;;
16314;SDS011;8266;52.150;4.768;2023-05-24T03:58:48;9.63;;;3.10;;
16314;SDS011;8266;52.150;4.768;2023-05-24T04:01:17;9.35;;;3.25;;
16314;SDS011;8266;52.150;4.768;2023-05-24T04:03:45;6.20;;;2.92;;
16314;SDS011;8266;52.150;4.768;2023-05-24T04:06:12;6.75;;;3.38;;
16314;SDS011;8266;52.150;4.768;2023-05-24T04:08:40;6.53;;;2.60;;
16314;SDS011;8266;52.150;4.768;2023-05-24T04:11:06;7.25;;;2.70;;
16314;SDS011;8266;52.150;4.768;2023-05-24T04:13:34;8.40;;;3.15;;
16314;SDS011;8266;52.150;4.768;2023-05-24T04:16:00;6.10;;;3.03;;
16314;SDS011;8266;52.150;4.768;2023-05-24T04:18:29;7.78;;;2.63;;
16314;SDS011;8266;52.150;4.768;2023-05-24T04:20:56;8.05;;;2.92;;
16314;SDS011;8266;52.150;4.768;2023-05-24T04:23:23;7.10;;;2.70;;
16314;SDS011;8266;52.150;4.768;2023-05-24T04:25:50;11.93;;;3.45;;
16314;SDS011;8266;52.150;4.768;2023-05-24T04:28:17;7.22;;;2.95;;
16314;SDS011;8266;52.150;4.768;2023-05-24T04:30:46;7.05;;;3.15;;
16314;SDS011;8266;52.150;4.768;2023-05-24T04:33:13;7.00;;;2.80;;
16314;SDS011;8266;52.150;4.768;2023-05-24T04:35:42;8.07;;;2.72;;
16314;SDS011;8266;52.150;4.768;2023-05-24T04:38:09;9.02;;;3.03;;
16314;SDS011;8266;52.150;4.768;2023-05-24T04:40:37;5.30;;;2.67;;
16314;SDS011;8266;52.150;4.768;2023-05-24T04:43:04;10.63;;;3.47;;
16314;SDS011;8266;52.150;4.768;2023-05-24T04:45:31;8.82;;;3.13;;
16314;SDS011;8266;52.150;4.768;2023-05-24T04:47:58;11.70;;;3.35;;
16314;SDS011;8266;52.150;4.768;2023-05-24T04:50:25;9.90;;;2.88;;
16314;SDS011;8266;52.150;4.768;2023-05-24T04:52:54;10.32;;;3.28;;
16314;SDS011;8266;52.150;4.768;2023-05-24T04:55:21;9.10;;;2.97;;
16314;SDS011;8266;52.150;4.768;2023-05-24T04:57:48;5.32;;;2.85;;
16314;SDS011;8266;52.150;4.768;2023-05-24T05:00:15;9.07;;;3.00;;
16314;SDS011;8266;52.150;4.768;2023-05-24T05:02:43;7.50;;;2.65;;
16314;SDS011;8266;52.150;4.768;2023-05-24T05:05:10;8.90;;;3.17;;
16314;SDS011;8266;52.150;4.768;2023-05-24T05:07:37;9.68;;;3.28;;
16314;SDS011;8266;52.150;4.768;2023-05-24T05:10:06;7.97;;;3.05;;
16314;SDS011;8266;52.150;4.768;2023-05-24T05:12:34;7.65;;;2.92;;
16314;SDS011;8266;52.150;4.768;2023-05-24T05:15:01;8.05;;;2.90;;
16314;SDS011;8266;52.150;4.768;2023-05-24T05:17:28;7.25;;;3.13;;
16314;SDS011;8266;52.150;4.768;2023-05-24T05:19:55;7.05;;;2.75;;
16314;SDS011;8266;52.150;4.768;2023-05-24T05:22:22;9.18;;;3.20;;
16314;SDS011;8266;52.150;4.768;2023-05-24T05:24:48;7.88;;;2.67;;
16314;SDS011;8266;52.150;4.768;2023-05-24T05:27:17;8.93;;;2.83;;
16314;SDS011;8266;52.150;4.768;2023-05-24T05:29:44;7.25;;;2.80;;
16314;SDS011;8266;52.150;4.768;2023-05-24T05:32:11;10.75;;;3.53;;
16314;SDS011;8266;52.150;4.768;2023-05-24T05:34:37;10.90;;;3.53;;
16314;SDS011;8266;52.150;4.768;2023-05-24T05:37:05;10.73;;;3.72;;
16314;SDS011;8266;52.150;4.768;2023-05-24T05:39:32;8.60;;;3.33;;
16314;SDS011;8266;52.150;4.768;2023-05-24T05:41:59;11.07;;;3.50;;
16314;SDS011;8266;52.150;4.768;2023-05-24T05:44:27;9.80;;;3.85;;
16314;SDS011;8266;52.150;4.768;2023-05-24T05:46:54;10.35;;;4.07;;
16314;SDS011;8266;52.150;4.768;2023-05-24T05:49:21;11.48;;;4.20;;
16314;SDS011;8266;52.150;4.768;2023-05-24T05:51:48;11.50;;;4.53;;
16314;SDS011;8266;52.150;4.768;2023-05-24T05:54:17;10.15;;;4.13;;
16314;SDS011;8266;52.150;4.768;2023-05-24T05:56:44;11.82;;;4.07;;
16314;SDS011;8266;52.150;4.768;2023-05-24T05:59:12;10.40;;;4.22;;
16314;SDS011;8266;52.150;4.768;2023-05-24T06:01:41;7.53;;;3.30;;
16314;SDS011;8266;52.150;4.768;2023-05-24T06:04:09;9.05;;;4.03;;
16314;SDS011;8266;52.150;4.768;2023-05-24T06:06:36;12.35;;;3.95;;
16314;SDS011;8266;52.150;4.768;2023-05-24T06:09:03;11.77;;;3.30;;
16314;SDS011;8266;52.150;4.768;2023-05-24T06:11:30;6.45;;;2.42;;
16314;SDS011;8266;52.150;4.768;2023-05-24T06:13:57;8.32;;;2.42;;
16314;SDS011;8266;52.150;4.768;2023-05-24T06:16:24;8.73;;;2.67;;
16314;SDS011;8266;52.150;4.768;2023-05-24T06:18:53;9.60;;;2.47;;
16314;SDS011;8266;52.150;4.768;2023-05-24T06:21:20;8.05;;;2.47;;
16314;SDS011;8266;52.150;4.768;2023-05-24T06:23:47;6.47;;;2.25;;
16314;SDS011;8266;52.150;4.768;2023-05-24T06:26:14;9.15;;;2.65;;
16314;SDS011;8266;52.150;4.768;2023-05-24T06:28:41;9.23;;;2.40;;
16314;SDS011;8266;52.150;4.768;2023-05-24T06:31:08;7.20;;;1.98;;
16314;SDS011;8266;52.150;4.768;2023-05-24T06:33:35;9.57;;;2.20;;
16314;SDS011;8266;52.150;4.768;2023-05-24T06:36:03;7.03;;;2.22;;
16314;SDS011;8266;52.150;4.768;2023-05-24T06:38:31;7.00;;;2.30;;
16314;SDS011;8266;52.150;4.768;2023-05-24T06:40:58;5.38;;;1.83;;
16314;SDS011;8266;52.150;4.768;2023-05-24T06:43:25;7.43;;;2.38;;
16314;SDS011;8266;52.150;4.768;2023-05-24T06:45:52;7.85;;;1.90;;
16314;SDS011;8266;52.150;4.768;2023-05-24T06:48:19;6.53;;;2.08;;
16314;SDS011;8266;52.150;4.768;2023-05-24T06:50:46;6.85;;;2.33;;
16314;SDS011;8266;52.150;4.768;2023-05-24T06:53:14;4.85;;;1.80;;
16314;SDS011;8266;52.150;4.768;2023-05-24T06:55:41;5.00;;;2.35;;
16314;SDS011;8266;52.150;4.768;2023-05-24T06:58:08;7.72;;;2.50;;
16314;SDS011;8266;52.150;4.768;2023-05-24T07:00:38;8.30;;;2.20;;
16314;SDS011;8266;52.150;4.768;2023-05-24T07:03:06;8.27;;;2.30;;
16314;SDS011;8266;52.150;4.768;2023-05-24T07:05:33;6.28;;;2.25;;
16314;SDS011;8266;52.150;4.768;2023-05-24T07:08:00;5.45;;;2.13;;
16314;SDS011;8266;52.150;4.768;2023-05-24T07:10:29;5.18;;;1.90;;
16314;SDS011;8266;52.150;4.768;2023-05-24T07:12:56;5.57;;;2.00;;
16314;SDS011;8266;52.150;4.768;2023-05-24T07:15:23;4.75;;;1.95;;
16314;SDS011;8266;52.150;4.768;2023-05-24T07:17:50;6.45;;;2.13;;
16314;SDS011;8266;52.150;4.768;2023-05-24T07:20:17;5.68;;;2.15;;
16314;SDS011;8266;52.150;4.768;2023-05-24T07:22:44;5.97;;;2.10;;
16314;SDS011;8266;52.150;4.768;2023-05-24T07:25:11;6.10;;;1.77;;
16314;SDS011;8266;52.150;4.768;2023-05-24T07:27:39;6.93;;;2.17;;
16314;SDS011;8266;52.150;4.768;2023-05-24T07:30:07;5.90;;;2.00;;
16314;SDS011;8266;52.150;4.768;2023-05-24T07:32:34;7.28;;;2.25;;
16314;SDS011;8266;52.150;4.768;2023-05-24T07:35:01;6.03;;;2.20;;
16314;SDS011;8266;52.150;4.768;2023-05-24T07:37:28;7.55;;;2.58;;
16314;SDS011;8266;52.150;4.768;2023-05-24T07:39:55;6.75;;;2.33;;
16314;SDS011;8266;52.150;4.768;2023-05-24T07:42:22;5.60;;;2.28;;
16314;SDS011;8266;52.150;4.768;2023-05-24T07:44:50;5.18;;;2.28;;
16314;SDS011;8266;52.150;4.768;2023-05-24T07:47:17;4.78;;;1.92;;
16314;SDS011;8266;52.150;4.768;2023-05-24T07:49:44;4.35;;;1.92;;
16314;SDS011;8266;52.150;4.768;2023-05-24T07:52:11;6.53;;;2.03;;
16314;SDS011;8266;52.150;4.768;2023-05-24T07:54:38;4.85;;;2.35;;
16314;SDS011;8266;52.150;4.768;2023-05-24T07:57:05;6.47;;;2.53;;
16314;SDS011;8266;52.150;4.768;2023-05-24T07:59:33;5.90;;;2.03;;
16314;SDS011;8266;52.150;4.768;2023-05-24T08:02:01;6.40;;;2.22;;
16314;SDS011;8266;52.150;4.768;2023-05-24T08:04:29;5.90;;;1.83;;
16314;SDS011;8266;52.150;4.768;2023-05-24T08:06:57;6.20;;;2.28;;
16314;SDS011;8266;52.150;4.768;2023-05-24T08:09:25;4.65;;;1.67;;
16314;SDS011;8266;52.150;4.768;2023-05-24T08:11:53;8.23;;;2.17;;
16314;SDS011;8266;52.150;4.768;2023-05-24T08:14:20;5.95;;;2.47;;
16314;SDS011;8266;52.150;4.768;2023-05-24T08:16:47;7.25;;;2.70;;
16314;SDS011;8266;52.150;4.768;2023-05-24T08:19:16;5.15;;;1.90;;
16314;SDS011;8266;52.150;4.768;2023-05-24T08:21:43;4.05;;;2.00;;
16314;SDS011;8266;52.150;4.768;2023-05-24T08:24:10;4.65;;;2.30;;
16314;SDS011;8266;52.150;4.768;2023-05-24T08:26:37;5.65;;;2.33;;
16314;SDS011;8266;52.150;4.768;2023-05-24T08:29:04;7.30;;;2.55;;
16314;SDS011;8266;52.150;4.768;2023-05-24T08:31:31;5.35;;;2.00;;
16314;SDS011;8266;52.150;4.768;2023-05-24T08:33:58;4.55;;;2.65;;
16314;SDS011;8266;52.150;4.768;2023-05-24T08:36:27;10.05;;;2.47;;
16314;SDS011;8266;52.150;4.768;2023-05-24T08:38:54;5.88;;;2.35;;
16314;SDS011;8266;52.150;4.768;2023-05-24T08:41:21;5.35;;;2.03;;
16314;SDS011;8266;52.150;4.768;2023-05-24T08:43:48;7.72;;;2.40;;
16314;SDS011;8266;52.150;4.768;2023-05-24T08:46:16;6.38;;;1.90;;
16314;SDS011;8266;52.150;4.768;2023-05-24T08:48:44;4.82;;;1.85;;
16314;SDS011;8266;52.150;4.768;2023-05-24T08:51:13;3.88;;;1.60;;
16314;SDS011;8266;52.150;4.768;2023-05-24T08:53:41;4.50;;;2.05;;
16314;SDS011;8266;52.150;4.768;2023-05-24T08:56:13;7.07;;;2.08;;
16314;SDS011;8266;52.150;4.768;2023-05-24T08:58:41;7.13;;;2.30;;
16314;SDS011;8266;52.150;4.768;2023-05-24T09:01:10;5.38;;;1.80;;
16314;SDS011;8266;52.150;4.768;2023-05-24T09:03:38;5.43;;;2.00;;
16314;SDS011;8266;52.150;4.768;2023-05-24T09:06:06;6.35;;;2.30;;
16314;SDS011;8266;52.150;4.768;2023-05-24T09:08:36;5.50;;;2.05;;
16314;SDS011;8266;52.150;4.768;2023-05-24T09:11:05;5.60;;;1.98;;
16314;SDS011;8266;52.150;4.768;2023-05-24T09:13:33;6.43;;;2.65;;
16314;SDS011;8266;52.150;4.768;2023-05-24T09:16:01;5.03;;;1.90;;
16314;SDS011;8266;52.150;4.768;2023-05-24T09:18:28;6.68;;;2.03;;
16314;SDS011;8266;52.150;4.768;2023-05-24T09:20:55;5.68;;;2.47;;
16314;SDS011;8266;52.150;4.768;2023-05-24T09:23:23;4.65;;;1.83;;
16314;SDS011;8266;52.150;4.768;2023-05-24T09:25:52;7.07;;;2.28;;
16314;SDS011;8266;52.150;4.768;2023-05-24T09:28:20;5.93;;;2.10;;
16314;SDS011;8266;52.150;4.768;2023-05-24T09:30:56;5.35;;;2.20;;
16314;SDS011;8266;52.150;4.768;2023-05-24T09:33:27;3.90;;;2.00;;
16314;SDS011;8266;52.150;4.768;2023-05-24T09:35:56;6.60;;;1.80;;
16314;SDS011;8266;52.150;4.768;2023-05-24T09:38:24;5.38;;;1.90;;
16314;SDS011;8266;52.150;4.768;2023-05-24T09:40:58;4.47;;;2.13;;
16314;SDS011;8266;52.150;4.768;2023-05-24T09:43:28;5.55;;;2.33;;
16314;SDS011;8266;52.150;4.768;2023-05-24T09:45:56;4.68;;;2.00;;
16314;SDS011;8266;52.150;4.768;2023-05-24T09:48:24;4.88;;;2.17;;
16314;SDS011;8266;52.150;4.768;2023-05-24T09:50:59;3.40;;;1.77;;
16314;SDS011;8266;52.150;4.768;2023-05-24T09:53:29;6.00;;;2.00;;
16314;SDS011;8266;52.150;4.768;2023-05-24T09:55:57;6.40;;;2.13;;
16314;SDS011;8266;52.150;4.768;2023-05-24T09:58:29;6.22;;;1.98;;
16314;SDS011;8266;52.150;4.768;2023-05-24T10:01:03;6.53;;;2.20;;
16314;SDS011;8266;52.150;4.768;2023-05-24T10:03:32;4.43;;;1.92;;
16314;SDS011;8266;52.150;4.768;2023-05-24T10:05:59;7.15;;;2.47;;
16314;SDS011;8266;52.150;4.768;2023-05-24T10:08:28;10.38;;;2.90;;
16314;SDS011;8266;52.150;4.768;2023-05-24T10:10:57;7.43;;;2.45;;
16314;SDS011;8266;52.150;4.768;2023-05-24T10:13:24;9.45;;;2.58;;
16314;SDS011;8266;52.150;4.768;2023-05-24T10:15:54;4.47;;;1.88;;
16314;SDS011;8266;52.150;4.768;2023-05-24T10:18:21;4.53;;;1.85;;
16314;SDS011;8266;52.150;4.768;2023-05-24T10:20:48;3.83;;;1.90;;
16314;SDS011;8266;52.150;4.768;2023-05-24T10:23:18;4.90;;;1.80;;
16314;SDS011;8266;52.150;4.768;2023-05-24T10:25:48;4.55;;;1.98;;
16314;SDS011;8266;52.150;4.768;2023-05-24T10:28:17;4.22;;;2.17;;
16314;SDS011;8266;52.150;4.768;2023-05-24T10:30:50;6.72;;;2.00;;
16314;SDS011;8266;52.150;4.768;2023-05-24T10:33:26;5.35;;;1.88;;
16314;SDS011;8266;52.150;4.768;2023-05-24T10:35:55;3.92;;;2.10;;
16314;SDS011;8266;52.150;4.768;2023-05-24T10:38:22;5.13;;;1.90;;
16314;SDS011;8266;52.150;4.768;2023-05-24T10:40:49;4.57;;;1.98;;
16314;SDS011;8266;52.150;4.768;2023-05-24T10:43:16;6.07;;;2.75;;
16314;SDS011;8266;52.150;4.768;2023-05-24T10:45:47;6.50;;;2.17;;
16314;SDS011;8266;52.150;4.768;2023-05-24T10:48:37;4.05;;;2.10;;
16314;SDS011;8266;52.150;4.768;2023-05-24T10:54:10;6.43;;;2.20;;
16314;SDS011;8266;52.150;4.768;2023-05-24T10:56:41;6.97;;;2.50;;
16314;SDS011;8266;52.150;4.768;2023-05-24T10:59:20;8.10;;;2.35;;
16314;SDS011;8266;52.150;4.768;2023-05-24T11:01:53;5.78;;;2.67;;
16314;SDS011;8266;52.150;4.768;2023-05-24T11:04:23;6.22;;;1.90;;
16314;SDS011;8266;52.150;4.768;2023-05-24T11:06:53;6.00;;;2.05;;
16314;SDS011;8266;52.150;4.768;2023-05-24T11:09:22;5.03;;;1.95;;
16314;SDS011;8266;52.150;4.768;2023-05-24T11:11:53;6.28;;;2.10;;
16314;SDS011;8266;52.150;4.768;2023-05-24T11:14:22;6.68;;;2.20;;
16314;SDS011;8266;52.150;4.768;2023-05-24T11:16:52;4.78;;;2.13;;
16314;SDS011;8266;52.150;4.768;2023-05-24T11:19:20;5.25;;;2.47;;
16314;SDS011;8266;52.150;4.768;2023-05-24T11:21:50;5.80;;;2.30;;
16314;SDS011;8266;52.150;4.768;2023-05-24T11:24:22;6.30;;;2.50;;
16314;SDS011;8266;52.150;4.768;2023-05-24T11:26:50;5.22;;;2.40;;
16314;SDS011;8266;52.150;4.768;2023-05-24T11:29:18;3.85;;;2.03;;
16314;SDS011;8266;52.150;4.768;2023-05-24T11:31:47;7.35;;;2.40;;
16314;SDS011;8266;52.150;4.768;2023-05-24T11:34:14;5.18;;;1.90;;
16314;SDS011;8266;52.150;4.768;2023-05-24T11:36:42;4.80;;;2.42;;
16314;SDS011;8266;52.150;4.768;2023-05-24T11:39:11;5.88;;;2.38;;
16314;SDS011;8266;52.150;4.768;2023-05-24T11:41:38;6.05;;;2.05;;
16314;SDS011;8266;52.150;4.768;2023-05-24T11:44:06;6.28;;;2.58;;
16314;SDS011;8266;52.150;4.768;2023-05-24T11:46:34;5.47;;;2.17;;
16314;SDS011;8266;52.150;4.768;2023-05-24T11:49:03;5.05;;;1.83;;
16314;SDS011;8266;52.150;4.768;2023-05-24T11:51:32;5.50;;;1.95;;
16314;SDS011;8266;52.150;4.768;2023-05-24T11:54:00;3.88;;;1.88;;
16314;SDS011;8266;52.150;4.768;2023-05-24T11:56:29;5.25;;;1.98;;
16314;SDS011;8266;52.150;4.768;2023-05-24T11:59:08;7.95;;;3.03;;
16314;SDS011;8266;52.150;4.768;2023-05-24T12:01:39;8.20;;;2.70;;
16314;SDS011;8266;52.150;4.768;2023-05-24T12:04:06;6.35;;;2.33;;
16314;SDS011;8266;52.150;4.768;2023-05-24T12:06:34;8.07;;;2.55;;
16314;SDS011;8266;52.150;4.768;2023-05-24T12:09:02;5.93;;;2.53;;
16314;SDS011;8266;52.150;4.768;2023-05-24T12:11:38;5.00;;;2.13;;
16314;SDS011;8266;52.150;4.768;2023-05-24T12:14:06;6.10;;;2.25;;
16314;SDS011;8266;52.150;4.768;2023-05-24T12:16:37;8.38;;;3.00;;
16314;SDS011;8266;52.150;4.768;2023-05-24T12:19:04;6.35;;;2.17;;
16314;SDS011;8266;52.150;4.768;2023-05-24T12:21:31;5.90;;;2.38;;
16314;SDS011;8266;52.150;4.768;2023-05-24T12:24:07;5.50;;;2.47;;
16314;SDS011;8266;52.150;4.768;2023-05-24T12:26:35;5.15;;;2.60;;
16314;SDS011;8266;52.150;4.768;2023-05-24T12:29:06;8.30;;;2.88;;
16314;SDS011;8266;52.150;4.768;2023-05-24T12:31:35;6.63;;;2.45;;
16314;SDS011;8266;52.150;4.768;2023-05-24T12:34:03;6.38;;;2.13;;
16314;SDS011;8266;52.150;4.768;2023-05-24T12:36:31;5.63;;;1.92;;
16314;SDS011;8266;52.150;4.768;2023-05-24T12:38:59;6.70;;;2.35;;
16314;SDS011;8266;52.150;4.768;2023-05-24T12:41:43;6.03;;;2.53;;
16314;SDS011;8266;52.150;4.768;2023-05-24T12:44:10;5.90;;;2.40;;
16314;SDS011;8266;52.150;4.768;2023-05-24T12:46:37;5.00;;;2.25;;
16314;SDS011;8266;52.150;4.768;2023-05-24T12:49:04;6.05;;;2.42;;
16314;SDS011;8266;52.150;4.768;2023-05-24T12:51:32;7.75;;;2.65;;
16314;SDS011;8266;52.150;4.768;2023-05-24T12:54:00;6.30;;;2.33;;
16314;SDS011;8266;52.150;4.768;2023-05-24T12:56:29;7.22;;;2.40;;
16314;SDS011;8266;52.150;4.768;2023-05-24T12:58:57;7.22;;;2.17;;
16314;SDS011;8266;52.150;4.768;2023-05-24T13:01:25;6.25;;;2.00;;
16314;SDS011;8266;52.150;4.768;2023-05-24T13:03:52;6.95;;;2.60;;
16314;SDS011;8266;52.150;4.768;2023-05-24T13:06:19;6.05;;;2.22;;
16314;SDS011;8266;52.150;4.768;2023-05-24T13:08:47;6.18;;;2.05;;
16314;SDS011;8266;52.150;4.768;2023-05-24T13:11:14;5.65;;;2.00;;
16314;SDS011;8266;52.150;4.768;2023-05-24T13:13:41;5.65;;;2.20;;
16314;SDS011;8266;52.150;4.768;2023-05-24T13:16:11;7.10;;;2.63;;
16314;SDS011;8266;52.150;4.768;2023-05-24T13:18:38;7.55;;;2.42;;
16314;SDS011;8266;52.150;4.768;2023-05-24T13:21:05;8.00;;;2.28;;
16314;SDS011;8266;52.150;4.768;2023-05-24T13:23:33;5.18;;;2.35;;
16314;SDS011;8266;52.150;4.768;2023-05-24T13:26:03;7.95;;;2.88;;
16314;SDS011;8266;52.150;4.768;2023-05-24T13:28:31;7.45;;;2.67;;
16314;SDS011;8266;52.150;4.768;2023-05-24T13:30:59;4.95;;;2.00;;
16314;SDS011;8266;52.150;4.768;2023-05-24T13:33:27;6.20;;;2.38;;
16314;SDS011;8266;52.150;4.768;2023-05-24T13:35:56;6.47;;;2.55;;
16314;SDS011;8266;52.150;4.768;2023-05-24T13:38:23;6.88;;;2.13;;
16314;SDS011;8266;52.150;4.768;2023-05-24T13:40:51;7.28;;;2.30;;
16314;SDS011;8266;52.150;4.768;2023-05-24T13:43:19;8.43;;;2.47;;
16314;SDS011;8266;52.150;4.768;2023-05-24T13:45:46;6.47;;;2.13;;
16314;SDS011;8266;52.150;4.768;2023-05-24T13:48:13;7.57;;;2.28;;
16314;SDS011;8266;52.150;4.768;2023-05-24T13:50:42;5.53;;;2.00;;
16314;SDS011;8266;52.150;4.768;2023-05-24T13:53:09;5.50;;;1.85;;
16314;SDS011;8266;52.150;4.768;2023-05-24T13:55:36;9.57;;;2.95;;
16314;SDS011;8266;52.150;4.768;2023-05-24T13:58:04;5.47;;;2.45;;
16314;SDS011;8266;52.150;4.768;2023-05-24T14:00:31;6.10;;;2.47;;
16314;SDS011;8266;52.150;4.768;2023-05-24T14:03:00;5.82;;;2.35;;
16314;SDS011;8266;52.150;4.768;2023-05-24T14:05:29;5.32;;;2.17;;
16314;SDS011;8266;52.150;4.768;2023-05-24T14:07:58;8.07;;;2.03;;
16314;SDS011;8266;52.150;4.768;2023-05-24T14:10:30;4.72;;;1.90;;
16314;SDS011;8266;52.150;4.768;2023-05-24T14:12:58;7.50;;;2.22;;
16314;SDS011;8266;52.150;4.768;2023-05-24T14:15:25;7.00;;;2.55;;
16314;SDS011;8266;52.150;4.768;2023-05-24T14:17:54;6.38;;;2.42;;
16314;SDS011;8266;52.150;4.768;2023-05-24T14:20:21;6.40;;;2.08;;
16314;SDS011;8266;52.150;4.768;2023-05-24T14:22:48;5.82;;;2.30;;
16314;SDS011;8266;52.150;4.768;2023-05-24T14:25:19;7.35;;;2.45;;
16314;SDS011;8266;52.150;4.768;2023-05-24T14:27:46;5.93;;;1.98;;
16314;SDS011;8266;52.150;4.768;2023-05-24T14:30:13;6.97;;;2.17;;
16314;SDS011;8266;52.150;4.768;2023-05-24T14:32:41;5.93;;;2.13;;
16314;SDS011;8266;52.150;4.768;2023-05-24T14:35:08;6.28;;;2.50;;
16314;SDS011;8266;52.150;4.768;2023-05-24T14:37:35;7.47;;;2.72;;
16314;SDS011;8266;52.150;4.768;2023-05-24T14:40:04;6.78;;;2.25;;
16314;SDS011;8266;52.150;4.768;2023-05-24T14:42:33;5.57;;;2.10;;
16314;SDS011;8266;52.150;4.768;2023-05-24T14:45:00;6.30;;;1.92;;
16314;SDS011;8266;52.150;4.768;2023-05-24T14:47:28;5.45;;;1.92;;
16314;SDS011;8266;52.150;4.768;2023-05-24T14:49:56;3.40;;;1.73;;
16314;SDS011;8266;52.150;4.768;2023-05-24T14:52:23;5.68;;;1.88;;
16314;SDS011;8266;52.150;4.768;2023-05-24T14:54:50;7.30;;;2.38;;
16314;SDS011;8266;52.150;4.768;2023-05-24T14:57:17;4.07;;;1.92;;
16314;SDS011;8266;52.150;4.768;2023-05-24T14:59:46;5.97;;;2.08;;
16314;SDS011;8266;52.150;4.768;2023-05-24T15:02:13;4.85;;;1.77;;
16314;SDS011;8266;52.150;4.768;2023-05-24T15:04:40;5.30;;;2.05;;
16314;SDS011;8266;52.150;4.768;2023-05-24T15:07:07;6.43;;;2.00;;
16314;SDS011;8266;52.150;4.768;2023-05-24T15:09:34;2.92;;;1.52;;